Hlavní strana
METAR-TAF:

METAR-TAF

Letiště :

Letiště Benátky Marco Polo

Benátky, Itálie

zeměpisná šířka: 45-30N, zeměpisná délka: 012-20E, výška: 2 m

Aktuální stav počasí

Zpráva byla vytvořena před 38 minutami, v 05:50 UTC
Severovýchodní vítr 5 kt
Teplota 23°C
Vlhkost vzduchu 89%
Tlak 1015 hPa
Viditelnost 10 km a více
Žádná oblačnost pod 1500 m, nevyskytují se cumulonimby.

METAR: LIPZ 190550Z 04005KT CAVOK 23/21 Q1015 NOSIG

Čas: 08:28 (06:28 UTC)

Předpověď počasí

Zpráva byla vytvořena před 1 hodinou a 28 minutami, v 05:00 UTC
Předpověď platná od 19 v 06 UTC do 20 v 12 UTC
vítr z různých směrů 5 kt
Viditelnost 10 km a více
Žádná oblačnost pod 1500 m, nevyskytují se cumulonimby.

TAF: LIPZ 190500Z 1906/2012 VRB05KT CAVOK

Stav a předpovědi počasí z více než 4 000 letišť (zprávy METAR a TAF).

Červené a žluté tečky na mapě představují dostupné meteorologické stanice.

Když kurzor umístíte na tečku, zobrazí se název stanice.

Pak kliknutím zobrazíte stav a předpověď počasí.

Chcete-li změnit mapu, kliknutím na zelené tlačítko se znaménkem +mapu přiblížíte, kliknutím na zelené tlačítko se znaménkem – mapu oddálíte a kliknutím na zelené šipky přejdete na sousední mapy.


METAR-TAF: